sensor_id;sensor_type;location;lat;lon;timestamp;temperature;humidity
5808;DHT22;2930;42.678;23.312;2022-09-30T00:01:24;15.90;94.10
5808;DHT22;2930;42.678;23.312;2022-09-30T00:03:54;16.00;95.20
5808;DHT22;2930;42.678;23.312;2022-09-30T00:06:20;16.00;94.70
5808;DHT22;2930;42.678;23.312;2022-09-30T00:08:47;16.00;94.80
5808;DHT22;2930;42.678;23.312;2022-09-30T00:11:16;16.00;95.30
5808;DHT22;2930;42.678;23.312;2022-09-30T00:13:43;15.90;94.90
5808;DHT22;2930;42.678;23.312;2022-09-30T00:16:10;15.90;95.00
5808;DHT22;2930;42.678;23.312;2022-09-30T00:18:36;15.90;94.60
5808;DHT22;2930;42.678;23.312;2022-09-30T00:21:03;15.90;94.90
5808;DHT22;2930;42.678;23.312;2022-09-30T00:23:29;15.80;94.40
5808;DHT22;2930;42.678;23.312;2022-09-30T00:26:00;15.80;94.20
5808;DHT22;2930;42.678;23.312;2022-09-30T00:28:27;15.80;93.70
5808;DHT22;2930;42.678;23.312;2022-09-30T00:30:57;15.80;94.60
5808;DHT22;2930;42.678;23.312;2022-09-30T00:33:22;15.80;94.30
5808;DHT22;2930;42.678;23.312;2022-09-30T00:35:48;15.80;94.00
5808;DHT22;2930;42.678;23.312;2022-09-30T00:38:14;15.80;95.40
5808;DHT22;2930;42.678;23.312;2022-09-30T00:40:39;15.70;95.00
5808;DHT22;2930;42.678;23.312;2022-09-30T00:43:19;15.80;95.80
5808;DHT22;2930;42.678;23.312;2022-09-30T00:45:56;15.70;95.40
5808;DHT22;2930;42.678;23.312;2022-09-30T00:48:38;15.70;95.10
5808;DHT22;2930;42.678;23.312;2022-09-30T00:51:05;15.70;94.70
5808;DHT22;2930;42.678;23.312;2022-09-30T00:53:50;15.70;95.60
5808;DHT22;2930;42.678;23.312;2022-09-30T00:56:23;15.70;94.80
5808;DHT22;2930;42.678;23.312;2022-09-30T00:58:53;15.60;94.50
5808;DHT22;2930;42.678;23.312;2022-09-30T01:01:20;15.60;95.00
5808;DHT22;2930;42.678;23.312;2022-09-30T01:03:55;15.50;94.50
5808;DHT22;2930;42.678;23.312;2022-09-30T01:06:22;15.50;93.90
5808;DHT22;2930;42.678;23.312;2022-09-30T01:08:49;15.50;94.10
5808;DHT22;2930;42.678;23.312;2022-09-30T01:11:14;15.50;95.70
5808;DHT22;2930;42.678;23.312;2022-09-30T01:13:41;15.40;95.00
5808;DHT22;2930;42.678;23.312;2022-09-30T01:30:19;15.40;94.90
5808;DHT22;2930;42.678;23.312;2022-09-30T01:44:09;15.40;95.50
5808;DHT22;2930;42.678;23.312;2022-09-30T01:46:41;15.40;96.00
5808;DHT22;2930;42.678;23.312;2022-09-30T01:49:38;15.40;95.30
5808;DHT22;2930;42.678;23.312;2022-09-30T01:52:14;15.40;94.40
5808;DHT22;2930;42.678;23.312;2022-09-30T01:55:00;15.40;94.50
5808;DHT22;2930;42.678;23.312;2022-09-30T02:00:00;15.40;95.70
5808;DHT22;2930;42.678;23.312;2022-09-30T02:02:31;15.40;95.50
5808;DHT22;2930;42.678;23.312;2022-09-30T02:05:01;15.50;96.00
5808;DHT22;2930;42.678;23.312;2022-09-30T02:10:30;15.40;94.90
5808;DHT22;2930;42.678;23.312;2022-09-30T02:13:03;15.50;95.80
5808;DHT22;2930;42.678;23.312;2022-09-30T02:15:38;15.40;94.80
5808;DHT22;2930;42.678;23.312;2022-09-30T02:18:11;15.40;94.90
5808;DHT22;2930;42.678;23.312;2022-09-30T02:20:40;15.40;94.80
5808;DHT22;2930;42.678;23.312;2022-09-30T02:23:08;15.40;94.90
5808;DHT22;2930;42.678;23.312;2022-09-30T02:25:41;15.40;95.60
5808;DHT22;2930;42.678;23.312;2022-09-30T02:28:12;15.50;96.40
5808;DHT22;2930;42.678;23.312;2022-09-30T02:30:44;15.50;95.40
5808;DHT22;2930;42.678;23.312;2022-09-30T02:33:16;15.50;96.80
5808;DHT22;2930;42.678;23.312;2022-09-30T02:35:49;15.40;96.20
5808;DHT22;2930;42.678;23.312;2022-09-30T02:38:19;15.40;96.60
5808;DHT22;2930;42.678;23.312;2022-09-30T02:43:20;15.40;95.70
5808;DHT22;2930;42.678;23.312;2022-09-30T02:48:27;15.40;96.20
5808;DHT22;2930;42.678;23.312;2022-09-30T02:51:08;15.40;95.60
5808;DHT22;2930;42.678;23.312;2022-09-30T02:56:58;15.40;96.30
5808;DHT22;2930;42.678;23.312;2022-09-30T02:59:26;15.30;95.30
5808;DHT22;2930;42.678;23.312;2022-09-30T03:01:52;15.30;95.60
5808;DHT22;2930;42.678;23.312;2022-09-30T03:04:22;15.30;95.40
5808;DHT22;2930;42.678;23.312;2022-09-30T03:06:49;15.30;95.10
5808;DHT22;2930;42.678;23.312;2022-09-30T03:09:15;15.30;95.40
5808;DHT22;2930;42.678;23.312;2022-09-30T03:11:41;15.40;95.70
5808;DHT22;2930;42.678;23.312;2022-09-30T03:14:26;15.40;96.60
5808;DHT22;2930;42.678;23.312;2022-09-30T03:23:04;15.40;96.10
5808;DHT22;2930;42.678;23.312;2022-09-30T03:28:35;15.40;95.50
5808;DHT22;2930;42.678;23.312;2022-09-30T03:33:44;15.50;95.50
5808;DHT22;2930;42.678;23.312;2022-09-30T03:41:44;15.50;95.50
5808;DHT22;2930;42.678;23.312;2022-09-30T03:46:58;15.60;94.80
5808;DHT22;2930;42.678;23.312;2022-09-30T03:49:31;15.60;96.40
5808;DHT22;2930;42.678;23.312;2022-09-30T03:51:59;15.60;95.60
5808;DHT22;2930;42.678;23.312;2022-09-30T03:54:30;15.60;96.30
5808;DHT22;2930;42.678;23.312;2022-09-30T03:56:57;15.60;95.70
5808;DHT22;2930;42.678;23.312;2022-09-30T03:59:29;15.70;96.70
5808;DHT22;2930;42.678;23.312;2022-09-30T04:01:55;15.70;95.80
5808;DHT22;2930;42.678;23.312;2022-09-30T04:04:22;15.70;96.60
5808;DHT22;2930;42.678;23.312;2022-09-30T04:06:48;15.70;96.00
5808;DHT22;2930;42.678;23.312;2022-09-30T04:09:14;15.60;95.80
5808;DHT22;2930;42.678;23.312;2022-09-30T04:11:40;15.60;96.20
5808;DHT22;2930;42.678;23.312;2022-09-30T04:14:06;15.60;95.70
5808;DHT22;2930;42.678;23.312;2022-09-30T04:16:32;15.60;95.30
5808;DHT22;2930;42.678;23.312;2022-09-30T04:18:59;15.60;95.10
5808;DHT22;2930;42.678;23.312;2022-09-30T04:21:25;15.60;95.70
5808;DHT22;2930;42.678;23.312;2022-09-30T04:23:53;15.60;95.30
5808;DHT22;2930;42.678;23.312;2022-09-30T04:26:19;15.70;97.10
5808;DHT22;2930;42.678;23.312;2022-09-30T04:28:45;15.70;96.20
5808;DHT22;2930;42.678;23.312;2022-09-30T04:31:12;15.70;96.50
5808;DHT22;2930;42.678;23.312;2022-09-30T04:33:38;15.70;95.80
5808;DHT22;2930;42.678;23.312;2022-09-30T04:36:05;15.70;97.00
5808;DHT22;2930;42.678;23.312;2022-09-30T04:38:31;15.70;95.80
5808;DHT22;2930;42.678;23.312;2022-09-30T04:41:04;15.70;96.20
5808;DHT22;2930;42.678;23.312;2022-09-30T04:43:30;15.70;96.30
5808;DHT22;2930;42.678;23.312;2022-09-30T04:45:56;15.60;96.10
5808;DHT22;2930;42.678;23.312;2022-09-30T04:48:23;15.60;96.60
5808;DHT22;2930;42.678;23.312;2022-09-30T04:50:49;15.60;95.50
5808;DHT22;2930;42.678;23.312;2022-09-30T04:53:16;15.60;96.10
5808;DHT22;2930;42.678;23.312;2022-09-30T04:55:43;15.60;95.80
5808;DHT22;2930;42.678;23.312;2022-09-30T04:58:09;15.60;95.50
5808;DHT22;2930;42.678;23.312;2022-09-30T05:00:35;15.60;95.50
5808;DHT22;2930;42.678;23.312;2022-09-30T05:03:01;15.60;95.00
5808;DHT22;2930;42.678;23.312;2022-09-30T05:05:28;15.70;97.20
5808;DHT22;2930;42.678;23.312;2022-09-30T05:08:02;15.70;96.40
5808;DHT22;2930;42.678;23.312;2022-09-30T05:10:28;15.70;96.70
5808;DHT22;2930;42.678;23.312;2022-09-30T05:12:54;15.70;96.60
5808;DHT22;2930;42.678;23.312;2022-09-30T05:15:20;15.70;95.70
5808;DHT22;2930;42.678;23.312;2022-09-30T05:17:48;15.70;97.10
5808;DHT22;2930;42.678;23.312;2022-09-30T05:20:13;15.70;97.00
5808;DHT22;2930;42.678;23.312;2022-09-30T05:22:39;15.70;96.30
5808;DHT22;2930;42.678;23.312;2022-09-30T05:25:06;15.70;96.80
5808;DHT22;2930;42.678;23.312;2022-09-30T05:27:33;15.70;96.60
5808;DHT22;2930;42.678;23.312;2022-09-30T05:29:59;15.70;96.90
5808;DHT22;2930;42.678;23.312;2022-09-30T05:32:25;15.70;96.90
5808;DHT22;2930;42.678;23.312;2022-09-30T05:34:51;15.60;96.80
5808;DHT22;2930;42.678;23.312;2022-09-30T05:37:17;15.60;96.20
5808;DHT22;2930;42.678;23.312;2022-09-30T05:39:42;15.60;97.60
5808;DHT22;2930;42.678;23.312;2022-09-30T05:42:08;15.60;96.70
5808;DHT22;2930;42.678;23.312;2022-09-30T05:44:34;15.60;97.60
5808;DHT22;2930;42.678;23.312;2022-09-30T05:47:00;15.60;96.80
5808;DHT22;2930;42.678;23.312;2022-09-30T05:49:26;15.50;97.20
5808;DHT22;2930;42.678;23.312;2022-09-30T05:51:52;15.60;97.70
5808;DHT22;2930;42.678;23.312;2022-09-30T05:54:18;15.60;97.10
5808;DHT22;2930;42.678;23.312;2022-09-30T05:56:44;15.60;96.70
5808;DHT22;2930;42.678;23.312;2022-09-30T05:59:10;15.70;97.20
5808;DHT22;2930;42.678;23.312;2022-09-30T06:01:36;15.70;97.30
5808;DHT22;2930;42.678;23.312;2022-09-30T06:04:02;15.80;97.30
5808;DHT22;2930;42.678;23.312;2022-09-30T06:06:28;15.90;97.30
5808;DHT22;2930;42.678;23.312;2022-09-30T06:08:55;16.00;97.00
5808;DHT22;2930;42.678;23.312;2022-09-30T06:11:21;16.00;97.90
5808;DHT22;2930;42.678;23.312;2022-09-30T06:13:50;16.10;97.70
5808;DHT22;2930;42.678;23.312;2022-09-30T06:16:17;16.20;97.40
5808;DHT22;2930;42.678;23.312;2022-09-30T06:18:44;16.20;96.90
5808;DHT22;2930;42.678;23.312;2022-09-30T06:21:13;16.30;97.30
5808;DHT22;2930;42.678;23.312;2022-09-30T06:23:40;16.30;96.50
5808;DHT22;2930;42.678;23.312;2022-09-30T06:26:09;16.40;97.40
5808;DHT22;2930;42.678;23.312;2022-09-30T06:28:36;16.40;96.70
5808;DHT22;2930;42.678;23.312;2022-09-30T06:31:03;16.50;97.20
5808;DHT22;2930;42.678;23.312;2022-09-30T06:33:30;16.50;97.30
5808;DHT22;2930;42.678;23.312;2022-09-30T06:35:57;16.50;96.70
5808;DHT22;2930;42.678;23.312;2022-09-30T06:38:23;16.50;96.90
5808;DHT22;2930;42.678;23.312;2022-09-30T06:40:49;16.50;96.90
5808;DHT22;2930;42.678;23.312;2022-09-30T06:43:19;16.60;96.70
5808;DHT22;2930;42.678;23.312;2022-09-30T06:45:47;16.60;96.00
5808;DHT22;2930;42.678;23.312;2022-09-30T06:48:13;16.70;96.80
5808;DHT22;2930;42.678;23.312;2022-09-30T06:50:41;16.80;96.70
5808;DHT22;2930;42.678;23.312;2022-09-30T06:53:09;16.90;96.50
5808;DHT22;2930;42.678;23.312;2022-09-30T06:55:36;17.00;96.20
5808;DHT22;2930;42.678;23.312;2022-09-30T06:58:04;17.10;96.70
5808;DHT22;2930;42.678;23.312;2022-09-30T07:00:32;17.10;95.90
5808;DHT22;2930;42.678;23.312;2022-09-30T07:02:58;17.20;96.00
5808;DHT22;2930;42.678;23.312;2022-09-30T07:05:24;17.30;96.10
5808;DHT22;2930;42.678;23.312;2022-09-30T07:07:51;17.40;95.70
5808;DHT22;2930;42.678;23.312;2022-09-30T07:10:18;17.50;95.40
5808;DHT22;2930;42.678;23.312;2022-09-30T07:12:48;17.60;95.60
5808;DHT22;2930;42.678;23.312;2022-09-30T07:15:15;17.70;95.00
5808;DHT22;2930;42.678;23.312;2022-09-30T07:17:41;17.80;95.30
5808;DHT22;2930;42.678;23.312;2022-09-30T07:20:07;18.00;95.60
5808;DHT22;2930;42.678;23.312;2022-09-30T07:22:33;18.10;95.40
5808;DHT22;2930;42.678;23.312;2022-09-30T07:25:02;18.30;96.30
5808;DHT22;2930;42.678;23.312;2022-09-30T07:27:31;18.50;94.90
5808;DHT22;2930;42.678;23.312;2022-09-30T07:29:57;18.70;94.70
5808;DHT22;2930;42.678;23.312;2022-09-30T07:32:24;18.90;94.50
5808;DHT22;2930;42.678;23.312;2022-09-30T07:34:49;19.00;93.70
5808;DHT22;2930;42.678;23.312;2022-09-30T07:37:17;19.10;93.60
5808;DHT22;2930;42.678;23.312;2022-09-30T07:39:45;19.30;93.90
5808;DHT22;2930;42.678;23.312;2022-09-30T07:42:16;19.40;92.90
5808;DHT22;2930;42.678;23.312;2022-09-30T07:44:44;19.60;92.30
5808;DHT22;2930;42.678;23.312;2022-09-30T07:47:11;19.60;91.00
5808;DHT22;2930;42.678;23.312;2022-09-30T07:49:37;19.70;89.90
5808;DHT22;2930;42.678;23.312;2022-09-30T07:52:03;19.80;90.30
5808;DHT22;2930;42.678;23.312;2022-09-30T07:54:31;20.00;89.90
5808;DHT22;2930;42.678;23.312;2022-09-30T07:57:00;20.50;90.60
5808;DHT22;2930;42.678;23.312;2022-09-30T07:59:28;21.10;91.00
5808;DHT22;2930;42.678;23.312;2022-09-30T08:01:54;21.80;89.80
5808;DHT22;2930;42.678;23.312;2022-09-30T08:04:21;22.60;89.40
5808;DHT22;2930;42.678;23.312;2022-09-30T08:06:52;23.40;85.70
5808;DHT22;2930;42.678;23.312;2022-09-30T08:09:20;24.20;83.10
5808;DHT22;2930;42.678;23.312;2022-09-30T08:11:46;24.90;79.90
5808;DHT22;2930;42.678;23.312;2022-09-30T08:14:14;25.40;78.90
5808;DHT22;2930;42.678;23.312;2022-09-30T08:16:40;26.00;77.50
5808;DHT22;2930;42.678;23.312;2022-09-30T08:19:06;26.50;76.10
5808;DHT22;2930;42.678;23.312;2022-09-30T08:21:31;27.00;76.50
5808;DHT22;2930;42.678;23.312;2022-09-30T08:23:57;27.50;74.10
5808;DHT22;2930;42.678;23.312;2022-09-30T08:26:23;27.90;72.00
5808;DHT22;2930;42.678;23.312;2022-09-30T08:28:49;28.30;72.50
5808;DHT22;2930;42.678;23.312;2022-09-30T08:31:17;28.80;72.60
5808;DHT22;2930;42.678;23.312;2022-09-30T08:33:44;29.40;71.10
5808;DHT22;2930;42.678;23.312;2022-09-30T08:38:40;29.90;70.00
5808;DHT22;2930;42.678;23.312;2022-09-30T08:51:47;32.60;64.50
5808;DHT22;2930;42.678;23.312;2022-09-30T08:54:18;33.40;63.70
5808;DHT22;2930;42.678;23.312;2022-09-30T08:56:46;34.00;61.30
5808;DHT22;2930;42.678;23.312;2022-09-30T08:59:43;34.70;62.00
5808;DHT22;2930;42.678;23.312;2022-09-30T09:04:44;36.00;59.40
5808;DHT22;2930;42.678;23.312;2022-09-30T09:23:38;39.10;55.50
5808;DHT22;2930;42.678;23.312;2022-09-30T09:26:04;39.40;55.90
5808;DHT22;2930;42.678;23.312;2022-09-30T09:28:55;39.60;56.80
5808;DHT22;2930;42.678;23.312;2022-09-30T09:31:24;39.80;55.80
5808;DHT22;2930;42.678;23.312;2022-09-30T09:33:50;40.10;56.30
5808;DHT22;2930;42.678;23.312;2022-09-30T09:41:57;40.50;53.80
5808;DHT22;2930;42.678;23.312;2022-09-30T09:44:38;40.90;52.50
5808;DHT22;2930;42.678;23.312;2022-09-30T09:47:09;41.20;54.80
5808;DHT22;2930;42.678;23.312;2022-09-30T09:49:42;41.30;54.90
5808;DHT22;2930;42.678;23.312;2022-09-30T09:54:45;41.80;51.80
5808;DHT22;2930;42.678;23.312;2022-09-30T09:57:15;41.90;53.20
5808;DHT22;2930;42.678;23.312;2022-09-30T10:00:23;42.00;53.00
5808;DHT22;2930;42.678;23.312;2022-09-30T10:03:12;42.00;48.20
5808;DHT22;2930;42.678;23.312;2022-09-30T10:05:43;41.90;47.50
5808;DHT22;2930;42.678;23.312;2022-09-30T10:08:15;41.80;52.90
5808;DHT22;2930;42.678;23.312;2022-09-30T10:13:17;42.00;51.80
5808;DHT22;2930;42.678;23.312;2022-09-30T10:15:43;42.10;51.70
5808;DHT22;2930;42.678;23.312;2022-09-30T10:18:18;42.30;51.20
5808;DHT22;2930;42.678;23.312;2022-09-30T10:20:56;42.50;51.20
5808;DHT22;2930;42.678;23.312;2022-09-30T10:23:27;42.70;51.10
5808;DHT22;2930;42.678;23.312;2022-09-30T10:25:57;43.00;50.40
5808;DHT22;2930;42.678;23.312;2022-09-30T10:28:26;43.10;50.70
5808;DHT22;2930;42.678;23.312;2022-09-30T10:31:25;43.30;50.60
5808;DHT22;2930;42.678;23.312;2022-09-30T10:36:45;43.60;44.50
5808;DHT22;2930;42.678;23.312;2022-09-30T10:41:43;43.50;47.50
5808;DHT22;2930;42.678;23.312;2022-09-30T10:44:20;43.50;47.60
5808;DHT22;2930;42.678;23.312;2022-09-30T10:46:49;43.60;43.50
5808;DHT22;2930;42.678;23.312;2022-09-30T10:51:54;43.70;41.40
5808;DHT22;2930;42.678;23.312;2022-09-30T10:59:45;41.80;41.40
5808;DHT22;2930;42.678;23.312;2022-09-30T11:02:29;41.60;43.90
5808;DHT22;2930;42.678;23.312;2022-09-30T11:12:37;41.80;46.70
5808;DHT22;2930;42.678;23.312;2022-09-30T11:17:58;41.80;43.70
5808;DHT22;2930;42.678;23.312;2022-09-30T11:20:29;41.40;44.60
5808;DHT22;2930;42.678;23.312;2022-09-30T11:28:38;40.30;43.60
5808;DHT22;2930;42.678;23.312;2022-09-30T11:33:51;39.20;43.80
5808;DHT22;2930;42.678;23.312;2022-09-30T11:36:38;39.30;42.80
5808;DHT22;2930;42.678;23.312;2022-09-30T11:42:26;39.70;40.90
5808;DHT22;2930;42.678;23.312;2022-09-30T11:47:55;39.00;44.00
5808;DHT22;2930;42.678;23.312;2022-09-30T11:53:11;39.20;41.30
5808;DHT22;2930;42.678;23.312;2022-09-30T11:58:21;39.00;41.20
5808;DHT22;2930;42.678;23.312;2022-09-30T12:01:03;38.60;42.20
5808;DHT22;2930;42.678;23.312;2022-09-30T12:03:37;38.00;42.80
5808;DHT22;2930;42.678;23.312;2022-09-30T12:06:29;36.70;43.90
5808;DHT22;2930;42.678;23.312;2022-09-30T12:12:02;35.30;44.50
5808;DHT22;2930;42.678;23.312;2022-09-30T12:20:26;33.20;47.40
5808;DHT22;2930;42.678;23.312;2022-09-30T12:26:01;32.60;48.40
5808;DHT22;2930;42.678;23.312;2022-09-30T12:37:22;33.10;47.60
5808;DHT22;2930;42.678;23.312;2022-09-30T12:43:02;32.50;47.50
5808;DHT22;2930;42.678;23.312;2022-09-30T12:48:59;32.50;48.30
5808;DHT22;2930;42.678;23.312;2022-09-30T12:51:30;32.80;48.30
5808;DHT22;2930;42.678;23.312;2022-09-30T12:54:04;32.90;47.50
5808;DHT22;2930;42.678;23.312;2022-09-30T12:56:33;32.90;47.30
5808;DHT22;2930;42.678;23.312;2022-09-30T12:58:59;32.70;48.50
5808;DHT22;2930;42.678;23.312;2022-09-30T13:01:30;32.70;48.10
5808;DHT22;2930;42.678;23.312;2022-09-30T13:06:26;32.80;47.90
5808;DHT22;2930;42.678;23.312;2022-09-30T13:14:32;33.20;46.00
5808;DHT22;2930;42.678;23.312;2022-09-30T13:16:59;33.40;46.90
5808;DHT22;2930;42.678;23.312;2022-09-30T13:19:42;33.50;47.20
5808;DHT22;2930;42.678;23.312;2022-09-30T13:32:46;33.20;47.10
5808;DHT22;2930;42.678;23.312;2022-09-30T13:35:47;33.00;45.80
5808;DHT22;2930;42.678;23.312;2022-09-30T13:41:02;32.60;47.00
5808;DHT22;2930;42.678;23.312;2022-09-30T13:44:08;32.50;46.40
5808;DHT22;2930;42.678;23.312;2022-09-30T13:46:50;32.20;46.90
5808;DHT22;2930;42.678;23.312;2022-09-30T13:49:41;32.10;48.00
5808;DHT22;2930;42.678;23.312;2022-09-30T13:52:19;31.90;47.30
5808;DHT22;2930;42.678;23.312;2022-09-30T13:54:47;31.90;48.50
5808;DHT22;2930;42.678;23.312;2022-09-30T13:57:19;31.80;48.80
5808;DHT22;2930;42.678;23.312;2022-09-30T14:00:09;31.90;49.90
5808;DHT22;2930;42.678;23.312;2022-09-30T14:03:12;31.90;48.00
5808;DHT22;2930;42.678;23.312;2022-09-30T14:05:51;31.90;47.70
5808;DHT22;2930;42.678;23.312;2022-09-30T14:08:39;31.80;48.60
5808;DHT22;2930;42.678;23.312;2022-09-30T14:14:09;31.80;49.50
5808;DHT22;2930;42.678;23.312;2022-09-30T14:17:16;31.90;49.50
5808;DHT22;2930;42.678;23.312;2022-09-30T14:22:29;31.90;48.70
5808;DHT22;2930;42.678;23.312;2022-09-30T14:24:55;31.90;48.60
5808;DHT22;2930;42.678;23.312;2022-09-30T14:30:16;31.60;48.50
5808;DHT22;2930;42.678;23.312;2022-09-30T14:32:48;31.50;49.20
5808;DHT22;2930;42.678;23.312;2022-09-30T14:35:21;31.30;48.80
5808;DHT22;2930;42.678;23.312;2022-09-30T14:37:53;31.10;49.30
5808;DHT22;2930;42.678;23.312;2022-09-30T14:40:25;31.00;49.60
5808;DHT22;2930;42.678;23.312;2022-09-30T14:42:52;31.10;50.40
5808;DHT22;2930;42.678;23.312;2022-09-30T14:45:28;31.10;49.50
5808;DHT22;2930;42.678;23.312;2022-09-30T14:48:03;30.90;49.60
5808;DHT22;2930;42.678;23.312;2022-09-30T14:50:35;30.90;49.80
5808;DHT22;2930;42.678;23.312;2022-09-30T14:53:02;30.70;50.40
5808;DHT22;2930;42.678;23.312;2022-09-30T14:55:30;30.50;51.10
5808;DHT22;2930;42.678;23.312;2022-09-30T14:58:29;30.40;50.90
5808;DHT22;2930;42.678;23.312;2022-09-30T15:01:05;30.20;50.90
5808;DHT22;2930;42.678;23.312;2022-09-30T15:03:34;30.00;51.70
5808;DHT22;2930;42.678;23.312;2022-09-30T15:06:00;29.80;51.90
5808;DHT22;2930;42.678;23.312;2022-09-30T15:08:26;29.70;52.00
5808;DHT22;2930;42.678;23.312;2022-09-30T15:10:53;29.70;52.90
5808;DHT22;2930;42.678;23.312;2022-09-30T15:13:25;29.50;52.80
5808;DHT22;2930;42.678;23.312;2022-09-30T15:15:52;29.40;53.00
5808;DHT22;2930;42.678;23.312;2022-09-30T15:18:43;29.30;53.30
5808;DHT22;2930;42.678;23.312;2022-09-30T15:21:14;29.20;53.00
5808;DHT22;2930;42.678;23.312;2022-09-30T15:23:44;29.20;54.30
5808;DHT22;2930;42.678;23.312;2022-09-30T15:26:12;29.20;53.40
5808;DHT22;2930;42.678;23.312;2022-09-30T15:28:38;29.10;53.80
5808;DHT22;2930;42.678;23.312;2022-09-30T15:31:05;29.10;53.70
5808;DHT22;2930;42.678;23.312;2022-09-30T15:33:32;28.90;53.40
5808;DHT22;2930;42.678;23.312;2022-09-30T15:36:07;28.70;54.40
5808;DHT22;2930;42.678;23.312;2022-09-30T15:38:39;28.60;54.10
5808;DHT22;2930;42.678;23.312;2022-09-30T15:41:09;28.30;54.40
5808;DHT22;2930;42.678;23.312;2022-09-30T15:43:44;28.00;54.70
5808;DHT22;2930;42.678;23.312;2022-09-30T15:46:28;27.60;55.40
5808;DHT22;2930;42.678;23.312;2022-09-30T15:49:08;27.40;56.00
5808;DHT22;2930;42.678;23.312;2022-09-30T15:51:53;27.20;55.70
5808;DHT22;2930;42.678;23.312;2022-09-30T15:54:34;27.00;56.60
5808;DHT22;2930;42.678;23.312;2022-09-30T15:57:01;26.80;57.60
5808;DHT22;2930;42.678;23.312;2022-09-30T15:59:57;26.60;58.00
5808;DHT22;2930;42.678;23.312;2022-09-30T16:02:30;26.50;58.30
5808;DHT22;2930;42.678;23.312;2022-09-30T16:04:57;26.20;58.70
5808;DHT22;2930;42.678;23.312;2022-09-30T16:07:25;26.00;59.00
5808;DHT22;2930;42.678;23.312;2022-09-30T16:09:51;25.80;59.30
5808;DHT22;2930;42.678;23.312;2022-09-30T16:12:21;25.50;60.00
5808;DHT22;2930;42.678;23.312;2022-09-30T16:17:36;25.10;60.30
5808;DHT22;2930;42.678;23.312;2022-09-30T16:20:05;24.90;60.70
5808;DHT22;2930;42.678;23.312;2022-09-30T16:25:18;24.50;61.50
5808;DHT22;2930;42.678;23.312;2022-09-30T16:27:44;24.30;61.60
5808;DHT22;2930;42.678;23.312;2022-09-30T16:30:18;24.10;62.30
5808;DHT22;2930;42.678;23.312;2022-09-30T16:32:47;24.00;62.30
5808;DHT22;2930;42.678;23.312;2022-09-30T16:35:22;23.90;62.40
5808;DHT22;2930;42.678;23.312;2022-09-30T16:37:49;23.80;62.30
5808;DHT22;2930;42.678;23.312;2022-09-30T16:40:25;23.60;62.60
5808;DHT22;2930;42.678;23.312;2022-09-30T16:42:52;23.50;62.60
5808;DHT22;2930;42.678;23.312;2022-09-30T16:45:23;23.40;62.80
5808;DHT22;2930;42.678;23.312;2022-09-30T16:47:49;23.20;63.00
5808;DHT22;2930;42.678;23.312;2022-09-30T16:50:19;23.20;62.70
5808;DHT22;2930;42.678;23.312;2022-09-30T16:52:46;23.10;63.10
5808;DHT22;2930;42.678;23.312;2022-09-30T16:55:12;23.10;63.30
5808;DHT22;2930;42.678;23.312;2022-09-30T16:57:39;23.00;63.40
5808;DHT22;2930;42.678;23.312;2022-09-30T17:00:05;22.90;63.50
5808;DHT22;2930;42.678;23.312;2022-09-30T17:02:31;22.80;63.50
5808;DHT22;2930;42.678;23.312;2022-09-30T17:04:57;22.80;63.30
5808;DHT22;2930;42.678;23.312;2022-09-30T17:07:23;22.80;63.60
5808;DHT22;2930;42.678;23.312;2022-09-30T17:09:48;22.80;63.70
5808;DHT22;2930;42.678;23.312;2022-09-30T17:12:16;22.70;63.40
5808;DHT22;2930;42.678;23.312;2022-09-30T17:14:41;22.70;63.80
5808;DHT22;2930;42.678;23.312;2022-09-30T17:17:08;22.70;64.30
5808;DHT22;2930;42.678;23.312;2022-09-30T17:19:34;22.60;63.40
5808;DHT22;2930;42.678;23.312;2022-09-30T17:22:02;22.60;63.80
5808;DHT22;2930;42.678;23.312;2022-09-30T17:24:28;22.60;63.80
5808;DHT22;2930;42.678;23.312;2022-09-30T17:26:53;22.60;63.90
5808;DHT22;2930;42.678;23.312;2022-09-30T17:29:19;22.60;63.70
5808;DHT22;2930;42.678;23.312;2022-09-30T17:31:45;22.50;64.40
5808;DHT22;2930;42.678;23.312;2022-09-30T17:34:11;22.50;63.60
5808;DHT22;2930;42.678;23.312;2022-09-30T17:36:37;22.50;63.60
5808;DHT22;2930;42.678;23.312;2022-09-30T17:39:03;22.40;63.90
5808;DHT22;2930;42.678;23.312;2022-09-30T17:41:30;22.30;64.20
5808;DHT22;2930;42.678;23.312;2022-09-30T17:44:14;22.30;64.50
5808;DHT22;2930;42.678;23.312;2022-09-30T17:46:43;22.30;64.30
5808;DHT22;2930;42.678;23.312;2022-09-30T17:49:13;22.30;64.20
5808;DHT22;2930;42.678;23.312;2022-09-30T17:51:42;22.30;65.10
5808;DHT22;2930;42.678;23.312;2022-09-30T17:54:08;22.20;65.30
5808;DHT22;2930;42.678;23.312;2022-09-30T17:56:34;22.30;65.30
5808;DHT22;2930;42.678;23.312;2022-09-30T17:59:01;22.30;65.30
5808;DHT22;2930;42.678;23.312;2022-09-30T18:01:27;22.20;65.90
5808;DHT22;2930;42.678;23.312;2022-09-30T18:03:58;22.20;65.20
5808;DHT22;2930;42.678;23.312;2022-09-30T18:06:24;22.20;65.60
5808;DHT22;2930;42.678;23.312;2022-09-30T18:08:50;22.10;65.20
5808;DHT22;2930;42.678;23.312;2022-09-30T18:11:24;22.10;65.00
5808;DHT22;2930;42.678;23.312;2022-09-30T18:13:58;22.00;65.70
5808;DHT22;2930;42.678;23.312;2022-09-30T18:16:25;22.00;65.50
5808;DHT22;2930;42.678;23.312;2022-09-30T18:18:55;22.00;64.90
5808;DHT22;2930;42.678;23.312;2022-09-30T18:21:21;22.00;65.40
5808;DHT22;2930;42.678;23.312;2022-09-30T18:23:53;22.00;66.30
5808;DHT22;2930;42.678;23.312;2022-09-30T18:26:19;22.00;66.20
5808;DHT22;2930;42.678;23.312;2022-09-30T18:28:45;22.00;67.10
5808;DHT22;2930;42.678;23.312;2022-09-30T18:31:12;21.90;66.30
5808;DHT22;2930;42.678;23.312;2022-09-30T18:33:46;21.90;65.60
5808;DHT22;2930;42.678;23.312;2022-09-30T18:36:12;21.80;66.30
5808;DHT22;2930;42.678;23.312;2022-09-30T18:38:38;21.70;66.80
5808;DHT22;2930;42.678;23.312;2022-09-30T18:41:05;21.60;67.00
5808;DHT22;2930;42.678;23.312;2022-09-30T18:43:31;21.60;66.30
5808;DHT22;2930;42.678;23.312;2022-09-30T18:45:57;21.60;67.80
5808;DHT22;2930;42.678;23.312;2022-09-30T18:48:24;21.50;66.50
5808;DHT22;2930;42.678;23.312;2022-09-30T18:50:50;21.40;65.70
5808;DHT22;2930;42.678;23.312;2022-09-30T18:53:20;21.30;66.80
5808;DHT22;2930;42.678;23.312;2022-09-30T18:55:47;21.20;65.60
5808;DHT22;2930;42.678;23.312;2022-09-30T18:58:13;21.20;69.00
5808;DHT22;2930;42.678;23.312;2022-09-30T19:00:42;21.10;68.50
5808;DHT22;2930;42.678;23.312;2022-09-30T19:03:08;21.00;67.90
5808;DHT22;2930;42.678;23.312;2022-09-30T19:05:40;21.00;67.90
5808;DHT22;2930;42.678;23.312;2022-09-30T19:08:06;20.90;70.50
5808;DHT22;2930;42.678;23.312;2022-09-30T19:10:37;20.60;69.00
5808;DHT22;2930;42.678;23.312;2022-09-30T19:13:03;20.60;68.70
5808;DHT22;2930;42.678;23.312;2022-09-30T19:15:28;20.60;68.60
5808;DHT22;2930;42.678;23.312;2022-09-30T19:17:54;20.60;70.10
5808;DHT22;2930;42.678;23.312;2022-09-30T19:20:20;20.60;69.30
5808;DHT22;2930;42.678;23.312;2022-09-30T19:22:47;20.50;68.10
5808;DHT22;2930;42.678;23.312;2022-09-30T19:25:16;20.40;68.60
5808;DHT22;2930;42.678;23.312;2022-09-30T19:27:42;20.30;68.60
5808;DHT22;2930;42.678;23.312;2022-09-30T19:30:10;20.30;70.80
5808;DHT22;2930;42.678;23.312;2022-09-30T19:32:37;20.10;72.00